Time;durP1;ratioP1;P1;durP2;ratioP2;P2;SDS_P1;SDS_P2;PMS_P1;PMS_P2;Temp;Humidity;BMP_temperature;BMP_pressure;BME280_temperature;BME280_humidity;BME280_pressure;Samples;Min_cycle;Max_cycle;Signal;HPM_P1;HPM_P2
2022/02/13 00:00:17;;;;;;;57.05;24.40;;;;;;;;;;5116238;28;20055;-65
2022/02/13 00:02:44;;;;;;;47.88;21.63;;;;;;;;;;5115612;28;20480;-64
2022/02/13 00:05:11;;;;;;;45.67;21.70;;;;;;;;;;5097588;28;20118;-66
2022/02/13 00:07:38;;;;;;;51.70;21.10;;;;;;;;;;5115478;28;20036;-67
2022/02/13 00:10:05;;;;;;;48.50;21.17;;;;;;;;;;5097548;28;20123;-67
2022/02/13 00:12:31;;;;;;;46.25;22.45;;;;;;;;;;5115730;28;20099;-66
2022/02/13 00:14:57;;;;;;;60.85;22.02;;;;;;;;;;5079024;28;20129;-67
2022/02/13 00:17:24;;;;;;;52.33;20.77;;;;;;;;;;5073412;28;20105;-66
2022/02/13 00:19:50;;;;;;;41.03;20.05;;;;;;;;;;5074720;28;20098;-65
2022/02/13 00:22:21;;;;;;;32.88;16.40;;;;;;;;;;5074813;28;20074;-67
2022/02/13 00:24:47;;;;;;;36.42;17.48;;;;;;;;;;5074957;28;20028;-67
2022/02/13 00:27:13;;;;;;;35.35;16.75;;;;;;;;;;5073051;28;20035;-66
2022/02/13 00:29:40;;;;;;;37.17;17.42;;;;;;;;;;5075107;28;20111;-67
2022/02/13 00:32:06;;;;;;;48.03;18.25;;;;;;;;;;5074746;28;20036;-68
2022/02/13 00:34:33;;;;;;;38.92;19.95;;;;;;;;;;5073430;28;20021;-68
2022/02/13 00:37:00;;;;;;;44.75;20.13;;;;;;;;;;5074641;28;20143;-69
2022/02/13 00:39:29;;;;;;;39.85;19.27;;;;;;;;;;5074597;28;20545;-67
2022/02/13 00:41:56;;;;;;;38.90;18.75;;;;;;;;;;5073309;28;20385;-67
2022/02/13 00:47:08;;;;;;;43.92;17.75;;;;;;;;;;5074782;28;20082;-69
2022/02/13 00:49:34;;;;;;;41.50;18.92;;;;;;;;;;5073130;28;20020;-68
2022/02/13 00:52:00;;;;;;;40.60;19.30;;;;;;;;;;5073091;28;20028;-67
2022/02/13 00:54:27;;;;;;;38.92;19.30;;;;;;;;;;5074297;28;20031;-69
2022/02/13 00:56:53;;;;;;;39.65;19.50;;;;;;;;;;5074265;28;20051;-70
2022/02/13 00:59:20;;;;;;;37.20;18.55;;;;;;;;;;5074213;28;20032;-70
2022/02/13 01:01:46;;;;;;;40.90;19.00;;;;;;;;;;5072792;28;20381;-68
2022/02/13 01:04:12;;;;;;;35.75;19.52;;;;;;;;;;5074226;28;20035;-69
2022/02/13 01:06:39;;;;;;;40.47;18.88;;;;;;;;;;5074074;28;20158;-69
2022/02/13 01:09:05;;;;;;;35.83;19.38;;;;;;;;;;5073932;28;20067;-69
2022/02/13 01:11:31;;;;;;;37.70;18.20;;;;;;;;;;5072627;28;20028;-69
2022/02/13 01:13:57;;;;;;;43.20;20.35;;;;;;;;;;5086122;28;20047;-71
2022/02/13 01:16:26;;;;;;;56.08;19.88;;;;;;;;;;5096149;28;20456;-70
2022/02/13 01:18:52;;;;;;;39.00;18.90;;;;;;;;;;5114408;28;20023;-69
2022/02/13 01:21:19;;;;;;;42.22;19.08;;;;;;;;;;5114336;28;20020;-70
2022/02/13 01:23:45;;;;;;;37.10;18.63;;;;;;;;;;5114651;28;20031;-70
2022/02/13 01:26:12;;;;;;;39.88;19.27;;;;;;;;;;5096274;28;20379;-72
2022/02/13 01:28:38;;;;;;;40.47;19.38;;;;;;;;;;5114204;28;20054;-70
2022/02/13 01:31:06;;;;;;;38.45;17.50;;;;;;;;;;5095939;28;20122;-70
2022/02/13 01:33:33;;;;;;;39.05;19.67;;;;;;;;;;5095815;28;20439;-68
2022/02/13 01:36:00;;;;;;;37.95;18.42;;;;;;;;;;5114126;28;20086;-68
2022/02/13 01:38:27;;;;;;;68.25;27.85;;;;;;;;;;5095054;28;20088;-68
2022/02/13 01:40:53;;;;;;;45.00;19.05;;;;;;;;;;5114056;28;20034;-67
2022/02/13 01:43:20;;;;;;;76.53;31.42;;;;;;;;;;5113926;28;20482;-68
2022/02/13 01:45:46;;;;;;;89.47;36.78;;;;;;;;;;5113947;28;20103;-69
2022/02/13 01:48:12;;;;;;;45.83;21.55;;;;;;;;;;5095624;28;20066;-69
2022/02/13 01:50:39;;;;;;;47.17;22.80;;;;;;;;;;5113606;28;20028;-68
2022/02/13 01:53:06;;;;;;;47.78;21.77;;;;;;;;;;5114153;28;20051;-69
2022/02/13 01:55:33;;;;;;;44.15;21.20;;;;;;;;;;5095548;28;20027;-68
2022/02/13 01:57:59;;;;;;;35.10;18.50;;;;;;;;;;5113789;28;20026;-68
2022/02/13 02:00:25;;;;;;;43.28;20.58;;;;;;;;;;5113792;28;20030;-69
2022/02/13 02:02:52;;;;;;;46.05;22.90;;;;;;;;;;5095378;28;20082;-69
2022/02/13 02:05:18;;;;;;;49.83;23.63;;;;;;;;;;5095365;28;20061;-69
2022/02/13 02:07:45;;;;;;;47.80;22.42;;;;;;;;;;5113637;28;20019;-69
2022/02/13 02:10:11;;;;;;;46.35;21.48;;;;;;;;;;5095366;28;20460;-68
2022/02/13 02:12:38;;;;;;;51.80;23.58;;;;;;;;;;5113581;28;20069;-69
2022/02/13 02:15:05;;;;;;;55.25;23.95;;;;;;;;;;5113144;28;20396;-68
2022/02/13 02:17:31;;;;;;;41.75;20.73;;;;;;;;;;5113291;28;20081;-68
2022/02/13 02:19:57;;;;;;;38.58;20.20;;;;;;;;;;5095123;28;20028;-68
2022/02/13 02:22:24;;;;;;;38.88;19.88;;;;;;;;;;5113478;28;20047;-67
2022/02/13 02:24:50;;;;;;;44.33;21.05;;;;;;;;;;5095225;28;20020;-67
2022/02/13 02:27:16;;;;;;;41.47;20.30;;;;;;;;;;5113479;28;20024;-68
2022/02/13 02:29:43;;;;;;;44.03;21.63;;;;;;;;;;5113394;28;20102;-68
2022/02/13 02:32:12;;;;;;;41.00;20.65;;;;;;;;;;5113414;28;20114;-67
2022/02/13 02:34:39;;;;;;;44.50;21.00;;;;;;;;;;5113369;28;20024;-68
2022/02/13 02:37:09;;;;;;;50.03;21.90;;;;;;;;;;5113341;28;20036;-70
2022/02/13 02:39:36;;;;;;;48.40;21.52;;;;;;;;;;5095010;28;20375;-68
2022/02/13 02:42:02;;;;;;;43.35;22.08;;;;;;;;;;5094995;28;20035;-68
2022/02/13 02:44:29;;;;;;;47.75;23.30;;;;;;;;;;5113581;28;20043;-68
2022/02/13 02:46:55;;;;;;;48.28;22.33;;;;;;;;;;5094967;28;20051;-67
2022/02/13 02:49:21;;;;;;;39.38;19.40;;;;;;;;;;5113598;28;20027;-68
2022/02/13 02:51:47;;;;;;;32.78;17.10;;;;;;;;;;5099040;28;20131;-68
2022/02/13 02:54:13;;;;;;;34.70;16.90;;;;;;;;;;5117305;28;20150;-67
2022/02/13 02:56:40;;;;;;;40.75;20.88;;;;;;;;;;5116926;28;20028;-68
2022/02/13 02:59:06;;;;;;;40.75;19.17;;;;;;;;;;5117236;28;20110;-67
2022/02/13 03:01:32;;;;;;;42.60;19.55;;;;;;;;;;5098720;28;20048;-69
2022/02/13 03:03:58;;;;;;;36.33;19.30;;;;;;;;;;5116818;28;20447;-67
2022/02/13 03:06:24;;;;;;;37.53;18.70;;;;;;;;;;5116764;28;20024;-67
2022/02/13 03:08:51;;;;;;;32.63;17.17;;;;;;;;;;5116976;28;20026;-67
2022/02/13 03:11:17;;;;;;;31.92;17.33;;;;;;;;;;5116976;28;20066;-67
2022/02/13 03:13:44;;;;;;;33.08;17.92;;;;;;;;;;5116655;28;20028;-69
2022/02/13 03:16:11;;;;;;;34.75;16.33;;;;;;;;;;5117183;28;20024;-67
2022/02/13 03:18:37;;;;;;;31.35;16.52;;;;;;;;;;5098514;28;20030;-66
2022/02/13 03:21:04;;;;;;;29.20;15.35;;;;;;;;;;5116827;28;20480;-67
2022/02/13 03:23:30;;;;;;;28.42;16.15;;;;;;;;;;5116631;28;20031;-67
2022/02/13 03:25:56;;;;;;;32.53;16.15;;;;;;;;;;5116341;28;20468;-71
2022/02/13 03:28:23;;;;;;;29.67;15.75;;;;;;;;;;5116628;28;20050;-71
2022/02/13 03:30:49;;;;;;;27.15;14.63;;;;;;;;;;5098248;28;20115;-67
2022/02/13 03:33:15;;;;;;;32.58;16.05;;;;;;;;;;5116569;28;20032;-67
2022/02/13 03:35:42;;;;;;;35.30;16.35;;;;;;;;;;5098188;28;20440;-67
2022/02/13 03:38:09;;;;;;;29.83;16.27;;;;;;;;;;5116399;28;20031;-69
2022/02/13 03:40:35;;;;;;;28.90;14.75;;;;;;;;;;5098060;28;20115;-68
2022/02/13 03:43:05;;;;;;;24.92;14.52;;;;;;;;;;5116348;28;20122;-67
2022/02/13 03:45:31;;;;;;;29.45;14.77;;;;;;;;;;5097989;28;20031;-67
2022/02/13 03:47:57;;;;;;;29.52;13.57;;;;;;;;;;5097914;28;20464;-70
2022/02/13 03:50:24;;;;;;;27.95;12.95;;;;;;;;;;5116217;28;20023;-69
2022/02/13 03:52:50;;;;;;;26.38;13.52;;;;;;;;;;5116233;28;20062;-67
2022/02/13 03:55:16;;;;;;;27.90;14.85;;;;;;;;;;5097747;28;20023;-68
2022/02/13 03:57:46;;;;;;;28.90;14.02;;;;;;;;;;5116076;28;20024;-69
2022/02/13 04:00:12;;;;;;;30.42;14.50;;;;;;;;;;5097655;28;20035;-72
2022/02/13 04:02:39;;;;;;;25.40;13.48;;;;;;;;;;5096813;28;20070;-68
2022/02/13 04:05:05;;;;;;;28.23;12.65;;;;;;;;;;5097543;28;20027;-69
2022/02/13 04:07:31;;;;;;;23.40;13.48;;;;;;;;;;5097576;28;20031;-69
2022/02/13 04:09:58;;;;;;;23.27;12.88;;;;;;;;;;5097511;28;20063;-69
2022/02/13 04:12:24;;;;;;;24.33;13.45;;;;;;;;;;5115796;28;20111;-68
2022/02/13 04:14:51;;;;;;;30.27;14.70;;;;;;;;;;5115686;28;20051;-67
2022/02/13 04:17:18;;;;;;;26.35;13.75;;;;;;;;;;5097259;28;20031;-68
2022/02/13 04:19:45;;;;;;;30.42;14.95;;;;;;;;;;5115678;28;20024;-69
2022/02/13 04:22:11;;;;;;;30.45;16.15;;;;;;;;;;5097203;28;20126;-68
2022/02/13 04:24:37;;;;;;;30.27;15.57;;;;;;;;;;5097278;28;20034;-68
2022/02/13 04:27:04;;;;;;;25.75;15.27;;;;;;;;;;5097217;28;20020;-71
2022/02/13 04:29:30;;;;;;;25.05;14.30;;;;;;;;;;5096636;28;20111;-70
2022/02/13 04:31:56;;;;;;;28.08;15.18;;;;;;;;;;5115064;28;20032;-70
2022/02/13 04:34:23;;;;;;;30.25;16.23;;;;;;;;;;5115325;28;20015;-70
2022/02/13 04:36:49;;;;;;;30.27;16.80;;;;;;;;;;5096952;28;20126;-71
2022/02/13 04:39:15;;;;;;;34.58;17.45;;;;;;;;;;5115279;28;20032;-70
2022/02/13 04:41:41;;;;;;;33.35;16.30;;;;;;;;;;5114888;28;20475;-70
2022/02/13 04:44:07;;;;;;;32.00;14.27;;;;;;;;;;5115151;28;20028;-68
2022/02/13 04:46:33;;;;;;;25.90;13.73;;;;;;;;;;5115167;28;20752;-66
2022/02/13 04:49:00;;;;;;;31.83;18.38;;;;;;;;;;5096820;28;20067;-66
2022/02/13 04:51:26;;;;;;;36.33;19.75;;;;;;;;;;5114975;28;20019;-66
2022/02/13 04:53:52;;;;;;;44.97;23.30;;;;;;;;;;5114960;28;20102;-69
2022/02/13 04:56:18;;;;;;;49.15;22.48;;;;;;;;;;5114944;28;20031;-69
2022/02/13 04:58:44;;;;;;;50.35;22.50;;;;;;;;;;5115151;28;20093;-67
2022/02/13 05:01:11;;;;;;;35.70;19.15;;;;;;;;;;5096456;28;20024;-69
2022/02/13 05:03:37;;;;;;;37.05;18.45;;;;;;;;;;5114744;28;20035;-69
2022/02/13 05:06:03;;;;;;;42.35;20.40;;;;;;;;;;5114708;28;20050;-71
2022/02/13 05:08:30;;;;;;;39.50;19.92;;;;;;;;;;5114401;28;20110;-71
2022/02/13 05:10:56;;;;;;;39.13;20.60;;;;;;;;;;5114849;28;20357;-70
2022/02/13 05:13:22;;;;;;;45.85;20.92;;;;;;;;;;5095010;28;20076;-68
2022/02/13 05:15:48;;;;;;;35.58;19.38;;;;;;;;;;5114047;28;20125;-68
2022/02/13 05:18:14;;;;;;;33.38;18.92;;;;;;;;;;5114502;28;20023;-68
2022/02/13 05:20:40;;;;;;;33.20;18.40;;;;;;;;;;5114407;28;20020;-70
2022/02/13 05:23:07;;;;;;;32.58;16.90;;;;;;;;;;5096043;28;20130;-69
2022/02/13 05:25:33;;;;;;;40.72;18.02;;;;;;;;;;5096007;28;20028;-68
2022/02/13 05:27:59;;;;;;;36.38;17.73;;;;;;;;;;5114308;28;20120;-68
2022/02/13 05:30:25;;;;;;;31.45;17.08;;;;;;;;;;5096028;28;20031;-69
2022/02/13 05:32:51;;;;;;;33.90;18.85;;;;;;;;;;5114496;28;20038;-69
2022/02/13 05:35:18;;;;;;;34.63;18.58;;;;;;;;;;5114142;28;20490;-70
2022/02/13 05:37:44;;;;;;;38.95;19.50;;;;;;;;;;5114159;28;20034;-69
2022/02/13 05:40:10;;;;;;;35.10;19.13;;;;;;;;;;5114084;28;20024;-69
2022/02/13 05:42:37;;;;;;;46.72;20.63;;;;;;;;;;5095640;28;20036;-68
2022/02/13 05:45:03;;;;;;;43.10;19.85;;;;;;;;;;5095782;28;20116;-70
2022/02/13 05:47:29;;;;;;;44.92;20.88;;;;;;;;;;5087925;28;20476;-65
2022/02/13 05:49:55;;;;;;;38.90;18.05;;;;;;;;;;5075091;28;20031;-68
2022/02/13 05:52:21;;;;;;;33.58;17.40;;;;;;;;;;5093747;28;20157;-66
2022/02/13 05:54:48;;;;;;;32.00;17.08;;;;;;;;;;5093316;28;20107;-67
2022/02/13 05:57:14;;;;;;;32.13;17.27;;;;;;;;;;5075192;28;20077;-68
2022/02/13 05:59:40;;;;;;;38.90;20.42;;;;;;;;;;5075184;28;20020;-69
2022/02/13 06:02:06;;;;;;;35.42;19.95;;;;;;;;;;5093458;28;20123;-66
2022/02/13 06:04:33;;;;;;;34.20;18.90;;;;;;;;;;5075094;28;20028;-67
2022/02/13 06:06:59;;;;;;;33.85;19.60;;;;;;;;;;5093252;28;20030;-69
2022/02/13 06:09:25;;;;;;;45.13;20.23;;;;;;;;;;5093233;28;20113;-67
2022/02/13 06:11:52;;;;;;;44.35;21.40;;;;;;;;;;5074973;28;20131;-67
2022/02/13 06:14:19;;;;;;;40.15;21.20;;;;;;;;;;5092872;28;20044;-68
2022/02/13 06:16:46;;;;;;;43.03;20.20;;;;;;;;;;5092995;28;20472;-67
2022/02/13 06:19:12;;;;;;;48.47;22.08;;;;;;;;;;5074842;28;20024;-67
2022/02/13 06:21:38;;;;;;;41.17;21.58;;;;;;;;;;5092670;28;20024;-67
2022/02/13 06:24:04;;;;;;;45.72;21.13;;;;;;;;;;5092783;28;20063;-69
2022/02/13 06:26:33;;;;;;;44.22;21.23;;;;;;;;;;5093282;28;20062;-68
2022/02/13 06:29:00;;;;;;;58.78;26.75;;;;;;;;;;5093105;28;20024;-66
2022/02/13 06:31:26;;;;;;;51.08;25.60;;;;;;;;;;5093050;28;20513;-68
2022/02/13 06:33:52;;;;;;;59.53;29.52;;;;;;;;;;5093015;28;20085;-67
2022/02/13 06:36:18;;;;;;;71.82;35.47;;;;;;;;;;5074828;28;20074;-66
2022/02/13 06:38:44;;;;;;;73.32;34.58;;;;;;;;;;5093269;28;20478;-66
2022/02/13 06:41:11;;;;;;;68.10;33.90;;;;;;;;;;5092959;28;20031;-66
2022/02/13 06:43:37;;;;;;;61.83;29.60;;;;;;;;;;5092966;28;20044;-66
2022/02/13 06:46:03;;;;;;;65.30;31.75;;;;;;;;;;5092972;28;20032;-69
2022/02/13 06:48:31;;;;;;;53.35;27.02;;;;;;;;;;5092915;28;20106;-66
2022/02/13 06:50:58;;;;;;;62.25;28.63;;;;;;;;;;5092750;28;20040;-68
2022/02/13 06:53:25;;;;;;;61.05;28.92;;;;;;;;;;5074745;28;20530;-68
2022/02/13 06:55:51;;;;;;;56.45;29.50;;;;;;;;;;5095029;28;20028;-67
2022/02/13 06:58:18;;;;;;;65.75;32.65;;;;;;;;;;5099673;28;20020;-68
2022/02/13 07:00:44;;;;;;;61.78;32.72;;;;;;;;;;5076974;28;20055;-72
2022/02/13 07:03:10;;;;;;;62.33;33.15;;;;;;;;;;5074516;28;20040;-69
2022/02/13 07:05:37;;;;;;;66.28;33.88;;;;;;;;;;5092752;28;20030;-68
2022/02/13 07:08:03;;;;;;;62.42;31.48;;;;;;;;;;5092436;28;20519;-68
2022/02/13 07:10:29;;;;;;;70.25;33.88;;;;;;;;;;5074584;28;20379;-71
2022/02/13 07:12:55;;;;;;;66.13;31.33;;;;;;;;;;5074534;28;20491;-72
2022/02/13 07:15:22;;;;;;;65.65;32.33;;;;;;;;;;5092006;28;20468;-74
2022/02/13 07:17:48;;;;;;;63.70;34.90;;;;;;;;;;5074452;28;20114;-73
2022/02/13 07:20:14;;;;;;;67.47;34.20;;;;;;;;;;5074466;28;20028;-70
2022/02/13 07:22:41;;;;;;;69.55;34.70;;;;;;;;;;5094814;28;20067;-71
2022/02/13 07:25:07;;;;;;;67.57;34.20;;;;;;;;;;5092446;28;20077;-69
2022/02/13 07:27:34;;;;;;;73.80;36.83;;;;;;;;;;5092566;28;20051;-70
2022/02/13 07:30:00;;;;;;;69.07;36.05;;;;;;;;;;5092525;28;20524;-71
2022/02/13 07:32:26;;;;;;;72.95;35.67;;;;;;;;;;5092455;28;20059;-71
2022/02/13 07:34:52;;;;;;;71.28;35.42;;;;;;;;;;5074281;28;20473;-71
2022/02/13 07:37:19;;;;;;;72.68;35.20;;;;;;;;;;5075931;28;20377;-70
2022/02/13 07:39:45;;;;;;;63.00;33.38;;;;;;;;;;5096020;28;20020;-69
2022/02/13 07:42:11;;;;;;;74.35;36.20;;;;;;;;;;5095845;28;20036;-72
2022/02/13 07:44:40;;;;;;;68.78;36.63;;;;;;;;;;5095914;28;20016;-68
2022/02/13 07:47:06;;;;;;;63.75;34.00;;;;;;;;;;5077697;28;20036;-67
2022/02/13 07:49:33;;;;;;;73.85;37.30;;;;;;;;;;5108918;28;20024;-68
2022/02/13 07:51:59;;;;;;;68.75;39.00;;;;;;;;;;5116247;28;20024;-66
2022/02/13 07:54:27;;;;;;;67.75;39.63;;;;;;;;;;5116206;28;20031;-66
2022/02/13 07:56:53;;;;;;;76.40;40.60;;;;;;;;;;5116125;28;20023;-67
2022/02/13 07:59:19;;;;;;;128.65;43.03;;;;;;;;;;5115968;28;20487;-67
2022/02/13 08:01:46;;;;;;;82.72;41.40;;;;;;;;;;5116176;28;20172;-67
2022/02/13 08:04:12;;;;;;;83.50;40.90;;;;;;;;;;5115712;28;20035;-66
2022/02/13 08:06:38;;;;;;;85.10;39.85;;;;;;;;;;5115901;28;20111;-68
2022/02/13 08:09:04;;;;;;;95.05;42.92;;;;;;;;;;5115854;28;20080;-66
2022/02/13 08:11:31;;;;;;;82.38;40.88;;;;;;;;;;5115792;28;20548;-70
2022/02/13 08:13:58;;;;;;;82.63;41.05;;;;;;;;;;5097195;28;20035;-67
2022/02/13 08:16:24;;;;;;;83.95;42.20;;;;;;;;;;5097156;28;20077;-68
2022/02/13 08:18:51;;;;;;;70.00;37.80;;;;;;;;;;5115678;28;20103;-67
2022/02/13 08:21:17;;;;;;;79.63;39.28;;;;;;;;;;5115638;28;20027;-67
2022/02/13 08:23:43;;;;;;;79.97;40.72;;;;;;;;;;5115304;28;20105;-66
2022/02/13 08:26:10;;;;;;;68.85;34.78;;;;;;;;;;5115546;28;20104;-67
2022/02/13 08:28:36;;;;;;;65.32;33.90;;;;;;;;;;5115505;28;20020;-67
2022/02/13 08:31:03;;;;;;;67.25;35.53;;;;;;;;;;5084578;28;20385;-69
2022/02/13 08:33:30;;;;;;;68.55;34.97;;;;;;;;;;5105833;28;20032;-68
2022/02/13 08:35:56;;;;;;;60.92;32.90;;;;;;;;;;5084069;28;20082;-67
2022/02/13 08:38:23;;;;;;;62.35;31.85;;;;;;;;;;5094854;28;20024;-71
2022/02/13 08:40:49;;;;;;;67.03;33.80;;;;;;;;;;5094833;28;20028;-71
2022/02/13 08:43:15;;;;;;;61.15;32.53;;;;;;;;;;5094846;28;20038;-70
2022/02/13 08:45:42;;;;;;;63.85;33.60;;;;;;;;;;5095031;28;20123;-70
2022/02/13 08:48:08;;;;;;;73.32;34.35;;;;;;;;;;5092086;28;20027;-70
2022/02/13 08:50:34;;;;;;;60.17;32.90;;;;;;;;;;5094608;28;20028;-71
2022/02/13 08:53:00;;;;;;;61.65;32.97;;;;;;;;;;5076307;28;20035;-71
2022/02/13 08:55:26;;;;;;;59.72;33.67;;;;;;;;;;5076256;28;20038;-71
2022/02/13 08:57:53;;;;;;;60.85;32.85;;;;;;;;;;5076032;28;20024;-70
2022/02/13 09:00:20;;;;;;;63.95;31.48;;;;;;;;;;5076086;28;20119;-72
2022/02/13 09:02:47;;;;;;;54.70;31.65;;;;;;;;;;5075969;28;20376;-71
2022/02/13 09:05:13;;;;;;;51.38;28.60;;;;;;;;;;5076162;28;20070;-71
2022/02/13 09:07:39;;;;;;;52.35;27.80;;;;;;;;;;5076026;28;20060;-72
2022/02/13 09:10:06;;;;;;;47.30;25.42;;;;;;;;;;5076016;28;20027;-71
2022/02/13 09:12:33;;;;;;;43.30;23.90;;;;;;;;;;5094050;28;20064;-69
2022/02/13 09:14:59;;;;;;;39.35;22.98;;;;;;;;;;5093791;28;20135;-70
2022/02/13 09:17:25;;;;;;;37.67;22.50;;;;;;;;;;5093970;28;20388;-69
2022/02/13 09:19:51;;;;;;;39.65;21.42;;;;;;;;;;5094168;28;20027;-69
2022/02/13 09:22:18;;;;;;;39.85;21.48;;;;;;;;;;5093960;28;20469;-70
2022/02/13 09:24:44;;;;;;;40.65;22.98;;;;;;;;;;5093831;28;20122;-70
2022/02/13 09:27:10;;;;;;;47.10;25.08;;;;;;;;;;5093767;28;20480;-71
2022/02/13 09:29:37;;;;;;;45.83;24.88;;;;;;;;;;5093426;28;20465;-71
2022/02/13 09:32:04;;;;;;;71.22;30.98;;;;;;;;;;5075449;28;20055;-71
2022/02/13 09:34:32;;;;;;;43.38;23.75;;;;;;;;;;5075208;28;20073;-72
2022/02/13 09:36:58;;;;;;;42.63;21.65;;;;;;;;;;5092742;28;20107;-70
2022/02/13 09:39:25;;;;;;;38.92;21.73;;;;;;;;;;5094157;28;20062;-67
2022/02/13 09:41:51;;;;;;;47.15;24.70;;;;;;;;;;5095375;28;20169;-67
2022/02/13 09:44:18;;;;;;;45.42;24.90;;;;;;;;;;5095550;28;20035;-68
2022/02/13 09:46:44;;;;;;;43.83;24.33;;;;;;;;;;5113870;28;20019;-65
2022/02/13 09:49:11;;;;;;;43.97;24.45;;;;;;;;;;5113699;28;20088;-67
2022/02/13 09:51:37;;;;;;;43.03;25.38;;;;;;;;;;5107987;28;20412;-69
2022/02/13 09:54:05;;;;;;;54.47;29.58;;;;;;;;;;5093372;28;20032;-69
2022/02/13 09:56:31;;;;;;;51.13;27.90;;;;;;;;;;5093150;28;20039;-69
2022/02/13 09:58:58;;;;;;;40.58;23.23;;;;;;;;;;5093087;28;20103;-69
2022/02/13 10:01:44;;;;;;;38.65;23.60;;;;;;;;;;5093042;28;20024;-70
2022/02/13 10:04:12;;;;;;;39.35;23.17;;;;;;;;;;5093114;28;20071;-67
2022/02/13 10:06:38;;;;;;;51.97;28.85;;;;;;;;;;5074914;28;20035;-68
2022/02/13 10:09:05;;;;;;;43.08;26.15;;;;;;;;;;5093298;28;20111;-68
2022/02/13 10:11:36;;;;;;;46.78;23.50;;;;;;;;;;5093060;28;20031;-68
2022/02/13 10:14:05;;;;;;;45.20;26.38;;;;;;;;;;5074045;28;20027;-67
2022/02/13 10:16:38;;;;;;;33.03;21.60;;;;;;;;;;5093589;28;20480;-66
2022/02/13 10:19:07;;;;;;;33.45;19.90;;;;;;;;;;5093017;28;20024;-67
2022/02/13 10:21:35;;;;;;;32.53;19.38;;;;;;;;;;5092942;28;20097;-69
2022/02/13 10:24:21;;;;;;;30.00;18.95;;;;;;;;;;5092898;28;20019;-69
2022/02/13 10:26:49;;;;;;;35.33;20.73;;;;;;;;;;5074804;28;20020;-67
2022/02/13 10:29:15;;;;;;;34.80;21.48;;;;;;;;;;5092821;28;20019;-65
2022/02/13 10:31:43;;;;;;;34.97;22.02;;;;;;;;;;5074711;28;20028;-67
2022/02/13 10:34:12;;;;;;;32.95;19.25;;;;;;;;;;5074658;28;20491;-75
2022/02/13 10:36:39;;;;;;;33.72;18.10;;;;;;;;;;5093091;28;20408;-69
2022/02/13 10:39:18;;;;;;;27.27;17.70;;;;;;;;;;5092603;28;20456;-68
2022/02/13 10:41:44;;;;;;;35.97;18.98;;;;;;;;;;5092545;28;20540;-66
2022/02/13 10:44:10;;;;;;;30.60;17.98;;;13.20;75.50;;;;;;5074224;28;20020;-68
2022/02/13 10:46:38;;;;;;;32.00;17.23;;;13.70;75.90;;;;;;5074405;28;20035;-71
2022/02/13 10:49:05;;;;;;;25.38;16.42;;;14.40;73.50;;;;;;5092670;28;20103;-72
2022/02/13 10:51:32;;;;;;;30.00;17.38;;;;;;;;;;5092281;28;20025;-72
2022/02/13 10:53:58;;;;;;;28.33;16.77;;;;;;;;;;5074561;28;20031;-70
2022/02/13 10:56:25;;;;;;;32.20;19.42;;;;;;;;;;5092625;28;20520;-71
2022/02/13 10:58:59;;;;;;;30.40;17.45;;;;;;;;;;5092686;28;20056;-68
2022/02/13 11:01:26;;;;;;;26.75;17.20;;;;;;;;;;5074677;28;20094;-68
2022/02/13 11:03:57;;;;;;;26.30;16.50;;;;;;;;;;5092437;28;20036;-69
2022/02/13 11:06:25;;;;;;;30.25;17.50;;;;;;;;;;5092607;28;20020;-66
2022/02/13 11:08:51;;;;;;;27.48;16.20;;;;;;;;;;5092570;28;20702;-66
2022/02/13 11:11:19;;;;;;;27.00;16.75;;;15.10;71.60;;;;;;5094290;28;20025;-67
2022/02/13 11:13:45;;;;;;;29.63;17.02;;;;;;;;;;5078158;28;20036;-67
2022/02/13 11:16:34;;;;;;;35.30;19.45;;;18.00;60.90;;;;;;5096401;28;20509;-73
2022/02/13 11:19:07;;;;;;;31.80;17.27;;;;;;;;;;5095922;28;20020;-66
2022/02/13 11:21:34;;;;;;;23.48;15.40;;;18.80;59.00;;;;;;5096072;28;20024;-68
2022/02/13 11:24:02;;;;;;;23.70;16.20;;;;;;;;;;5096166;28;20024;-68
2022/02/13 11:26:44;;;;;;;27.98;18.33;;;;;;;;;;5094648;28;20077;-70
2022/02/13 11:29:11;;;;;;;25.98;16.33;;;;;;;;;;5094483;28;20020;-71
2022/02/13 11:31:39;;;;;;;30.00;17.45;;;;;;;;;;5094663;28;20469;-69
2022/02/13 11:34:10;;;;;;;28.98;17.92;;;;;;;;;;5095947;28;20027;-69
2022/02/13 11:36:41;;;;;;;41.90;18.25;;;18.80;56.70;;;;;;5095942;28;20115;-66
2022/02/13 11:39:07;;;;;;;21.15;15.20;;;;;;;;;;5095899;28;20031;-65
2022/02/13 11:41:46;;;;;;;25.30;15.90;;;;;;;;;;5094025;28;20032;-66
2022/02/13 11:44:31;;;;;;;26.08;17.02;;;;;;;;;;5095506;28;20024;-73
2022/02/13 11:46:58;;;;;;;26.48;16.65;;;18.40;58.70;;;;;;5095568;28;20044;-72
2022/02/13 11:49:24;;;;;;;23.70;16.63;;;;;;;;;;5095528;28;20039;-70
2022/02/13 11:51:53;;;;;;;29.95;16.25;;;;;;;;;;5095411;28;20027;-70
2022/02/13 11:54:37;;;;;;;26.92;16.35;;;17.10;57.10;;;;;;5095359;28;20024;-69
2022/02/13 11:57:15;;;;;;;21.58;13.35;;;14.50;64.40;;;;;;5094249;28;20089;-69
2022/02/13 12:00:02;;;;;;;28.17;16.38;;;13.90;64.30;;;;;;5095481;28;20024;-68
2022/02/13 12:02:31;;;;;;;28.77;15.73;;;13.40;65.90;;;;;;5095159;28;20040;-74
2022/02/13 12:05:06;;;;;;;28.63;15.80;;;13.00;66.50;;;;;;5095119;28;20086;-72
2022/02/13 12:07:58;;;;;;;26.88;16.17;;;13.00;67.90;;;;;;5093945;28;20039;-72
2022/02/13 12:10:29;;;;;;;;;;;12.60;69.70;;;;;;5095337;28;20380;-69
2022/02/13 12:13:15;;;;;;;27.75;16.23;;;12.80;68.80;;;;;;5095169;28;19908;-69
2022/02/13 12:15:51;;;;;;;25.58;15.88;;;13.00;69.80;;;;;;5093873;28;20492;-68
2022/02/13 12:18:17;;;;;;;28.70;17.15;;;13.20;70.80;;;;;;5090046;28;20381;-69
2022/02/13 12:20:50;;;;;;;27.17;15.10;;;13.20;68.50;;;;;;5095083;28;20028;-69
2022/02/13 12:23:18;;;;;;;23.92;14.35;;;13.10;68.80;;;;;;5093384;28;20032;-70
2022/02/13 12:25:48;;;;;;;32.70;14.63;;;12.60;68.40;;;;;;5095210;28;20030;-67
2022/02/13 12:28:19;;;;;;;29.13;17.08;;;12.60;69.10;;;;;;5094712;28;20043;-72
2022/02/13 12:30:49;;;;;;;24.17;14.90;;;;;;;;;;5092790;28;20024;-71
2022/02/13 12:33:16;;;;;;;25.55;14.55;;;;;;;;;;5094785;28;20372;-71
2022/02/13 12:35:42;;;;;;;22.95;15.02;;;;;;;;;;5077158;28;20059;-70
2022/02/13 12:38:09;;;;;;;18.38;12.48;;;;;;;;;;5094088;28;20051;-68
2022/02/13 12:40:38;;;;;;;21.58;11.60;;;;;;;;;;5094245;28;20023;-68
2022/02/13 12:43:09;;;;;;;20.50;10.38;;;;;;;;;;5094594;28;20031;-77
2022/02/13 12:45:47;;;;;;;24.90;14.52;;;;;;;;;;5094415;28;20530;-69
2022/02/13 12:48:18;;;;;;;27.98;14.77;;;;;;;;;;5094064;28;20472;-70
2022/02/13 12:50:48;;;;;;;26.33;15.70;;;;;;;;;;5091912;28;20020;-73
2022/02/13 12:53:17;;;;;;;22.90;15.43;;;;;;;;;;5094289;28;20177;-71
2022/02/13 12:55:43;;;;;;;25.85;15.25;;;12.40;99.90;;;;;;5092866;28;20376;-71
2022/02/13 12:58:10;;;;;;;24.48;14.52;;;12.70;93.10;;;;;;5092730;28;20027;-71
2022/02/13 13:00:46;;;;;;;28.77;17.30;;;13.00;67.10;;;;;;5092712;28;20024;-70
2022/02/13 13:03:16;;;;;;;24.83;15.15;;;13.60;67.00;;;;;;5093792;28;20540;-67
2022/02/13 13:05:45;;;;;;;24.45;14.60;;;12.90;67.40;;;;;;5094445;28;20034;-67
2022/02/13 13:08:13;;;;;;;27.45;15.27;;;12.20;67.90;;;;;;5092680;28;20024;-65
2022/02/13 13:10:44;;;;;;;27.85;15.23;;;;;;;;;;5093889;28;20096;-64
2022/02/13 13:13:10;;;;;;;26.67;14.40;;;;;;;;;;5092558;28;20024;-66
2022/02/13 13:15:36;;;;;;;25.67;15.02;;;11.80;99.90;;;;;;5093866;28;20055;-65
2022/02/13 13:18:04;;;;;;;25.20;14.07;;;12.20;91.00;;;;;;5093847;28;20020;-64
2022/02/13 13:20:40;;;;;;;26.08;13.93;;;12.50;68.90;;;;;;5093666;28;20498;-64
2022/02/13 13:23:18;;;;;;;27.73;14.70;;;12.50;66.80;;;;;;5092501;28;20066;-65
2022/02/13 13:25:47;;;;;;;23.33;13.70;;;12.60;66.60;;;;;;5093868;28;20052;-67
2022/02/13 13:28:20;;;;;;;26.02;14.48;;;13.40;66.90;;;;;;5093613;28;20024;-67
2022/02/13 13:30:47;;;;;;;23.80;13.15;;;13.80;65.20;;;;;;5092359;28;20074;-65
2022/02/13 13:33:14;;;;;;;23.38;11.35;;;13.00;63.80;;;;;;5078577;28;20453;-66
2022/02/13 13:35:41;;;;;;;19.48;11.52;;;12.40;65.60;;;;;;5092790;28;20028;-65
2022/02/13 13:38:09;;;;;;;20.95;12.27;;;;;;;;;;5093587;28;20039;-66
2022/02/13 13:40:37;;;;;;;22.73;13.50;;;;;;;;;;5075223;28;20170;-65
2022/02/13 13:43:13;;;;;;;23.65;13.63;;;;;;;;;;5093139;28;20395;-65
2022/02/13 13:45:42;;;;;;;18.85;13.65;;;11.50;79.20;;;;;;5093523;28;20024;-65
2022/02/13 13:48:18;;;;;;;22.63;13.25;;;;;;;;;;5093456;28;20032;-65
2022/02/13 13:50:45;;;;;;;23.92;14.30;;;;;;;;;;5093392;28;20012;-66
2022/02/13 13:53:13;;;;;;;23.02;13.95;;;;;;;;;;5093188;28;20530;-67
2022/02/13 13:55:43;;;;;;;25.58;13.48;;;;;;;;;;5093484;28;20546;-69
2022/02/13 13:58:10;;;;;;;24.05;14.45;;;;;;;;;;5093291;28;20510;-65
2022/02/13 14:00:36;;;;;;;27.10;15.05;;;;;;;;;;5093579;28;20102;-65
2022/02/13 14:03:03;;;;;;;22.85;15.48;;;;;;;;;;5094000;28;20035;-65
2022/02/13 14:05:34;;;;;;;23.25;15.43;;;;;;;;;;5094097;28;20035;-65
2022/02/13 14:08:02;;;;;;;29.40;16.80;;;;;;;;;;5093849;28;20020;-64